createdAt,value
2019-03-13T00:01:45.600Z,40.84
2019-03-13T00:04:34.396Z,40.58
2019-03-13T00:07:22.625Z,40.91
2019-03-13T00:10:11.739Z,40.91
2019-03-13T00:13:00.624Z,40.45
2019-03-13T00:15:50.037Z,40.04
2019-03-13T00:18:39.622Z,40.93
2019-03-13T00:21:27.633Z,42.32
2019-03-13T00:24:16.493Z,41.73
2019-03-13T00:27:05.042Z,39.40
2019-03-13T00:29:53.959Z,40.70
2019-03-13T00:32:42.689Z,38.67
2019-03-13T00:35:31.730Z,36.97
2019-03-13T00:38:20.133Z,37.55
2019-03-13T00:41:08.678Z,38.03
2019-03-13T00:43:57.591Z,37.11
2019-03-13T00:46:46.328Z,38.86
2019-03-13T00:49:34.940Z,37.97
2019-03-13T00:52:23.690Z,39.96
2019-03-13T00:55:12.478Z,40.77
2019-03-13T00:58:00.860Z,41.45
2019-03-13T01:01:08.741Z,40.20
2019-03-13T01:04:19.849Z,40.73
2019-03-13T01:07:10.568Z,38.45
2019-03-13T01:09:59.775Z,36.74
2019-03-13T01:12:47.846Z,35.31
2019-03-13T01:15:35.996Z,34.36
2019-03-13T01:18:24.462Z,34.16
2019-03-13T01:21:12.940Z,34.00
2019-03-13T01:24:01.750Z,34.30
2019-03-13T01:26:50.370Z,35.94
2019-03-13T01:29:38.832Z,37.46
2019-03-13T01:32:53.175Z,38.03
2019-03-13T01:35:51.823Z,38.39
2019-03-13T01:38:40.413Z,39.22
2019-03-13T01:41:29.134Z,39.79
2019-03-13T01:44:17.680Z,39.61
2019-03-13T01:47:05.944Z,39.18
2019-03-13T01:49:54.887Z,39.42
2019-03-13T01:52:43.857Z,39.67
2019-03-13T01:55:31.856Z,39.85
2019-03-13T01:58:20.332Z,39.52
2019-03-13T02:01:09.384Z,39.57
2019-03-13T02:03:57.965Z,38.98
2019-03-13T02:06:46.686Z,39.06
2019-03-13T02:09:35.584Z,39.79
2019-03-13T02:12:24.379Z,39.60
2019-03-13T02:15:15.453Z,40.15
2019-03-13T02:18:03.791Z,40.15
2019-03-13T02:20:53.038Z,40.66
2019-03-13T02:23:42.117Z,41.28
2019-03-13T02:26:30.294Z,41.45
2019-03-13T02:29:18.802Z,41.90
2019-03-13T02:32:07.511Z,42.61
2019-03-13T02:34:56.159Z,43.12
2019-03-13T02:37:44.928Z,44.09
2019-03-13T02:40:33.629Z,44.83
2019-03-13T02:43:22.298Z,45.83
2019-03-13T02:46:11.120Z,46.39
2019-03-13T02:49:00.181Z,47.13
2019-03-13T02:51:49.032Z,48.08
2019-03-13T02:54:37.598Z,48.88
2019-03-13T02:57:26.132Z,51.11
2019-03-13T03:00:17.022Z,53.45
2019-03-13T03:03:07.691Z,54.57
2019-03-13T03:05:57.555Z,56.46
2019-03-13T03:08:46.377Z,56.83
2019-03-13T03:11:35.158Z,57.27
2019-03-13T03:14:23.905Z,57.92
2019-03-13T03:17:12.687Z,58.51
2019-03-13T03:20:01.322Z,59.16
2019-03-13T03:22:50.609Z,58.67
2019-03-13T03:25:38.658Z,58.27
2019-03-13T03:28:27.266Z,56.93
2019-03-13T03:31:15.934Z,57.34
2019-03-13T03:34:05.160Z,57.27
2019-03-13T03:36:53.598Z,57.35
2019-03-13T03:39:41.903Z,56.65
2019-03-13T03:42:30.543Z,57.25
2019-03-13T03:45:19.484Z,57.81
2019-03-13T03:48:08.554Z,57.53
2019-03-13T03:50:57.209Z,58.12
2019-03-13T03:53:46.113Z,58.31
2019-03-13T03:56:34.322Z,58.42
2019-03-13T03:59:22.585Z,57.99
2019-03-13T04:02:11.305Z,56.80
2019-03-13T04:05:00.080Z,57.14
2019-03-13T04:07:48.596Z,56.62
2019-03-13T04:10:38.404Z,55.40
2019-03-13T04:13:27.128Z,55.44
2019-03-13T04:16:15.315Z,55.82
2019-03-13T04:19:04.187Z,55.99
2019-03-13T04:21:52.786Z,56.43
2019-03-13T04:24:41.527Z,56.81
2019-03-13T04:27:30.395Z,56.67
2019-03-13T04:30:19.427Z,56.56
2019-03-13T04:33:08.263Z,56.19
2019-03-13T04:35:56.264Z,56.94
2019-03-13T04:38:44.905Z,56.68
2019-03-13T04:41:33.305Z,56.56
2019-03-13T04:44:21.739Z,56.57
2019-03-13T04:47:10.377Z,56.78
2019-03-13T04:49:58.873Z,57.02
2019-03-13T04:52:47.695Z,57.36
2019-03-13T04:55:36.284Z,57.71
2019-03-13T04:58:24.811Z,57.71
2019-03-13T05:01:13.847Z,58.34
2019-03-13T05:04:02.479Z,58.59
2019-03-13T05:06:51.145Z,58.71
2019-03-13T05:09:40.516Z,58.81
2019-03-13T05:12:29.675Z,59.33
2019-03-13T05:15:17.701Z,59.34
2019-03-13T05:18:06.581Z,58.49
2019-03-13T05:20:55.413Z,58.04
2019-03-13T05:23:43.995Z,58.43
2019-03-13T05:26:32.299Z,58.71
2019-03-13T05:29:20.850Z,58.75
2019-03-13T05:32:09.525Z,58.61
2019-03-13T05:34:58.667Z,58.51
2019-03-13T05:37:47.344Z,58.84
2019-03-13T05:40:36.517Z,58.77
2019-03-13T05:43:25.301Z,58.39
2019-03-13T05:46:13.717Z,58.66
2019-03-13T05:49:02.175Z,58.45
2019-03-13T05:51:50.565Z,57.87
2019-03-13T05:54:39.647Z,58.12
2019-03-13T05:57:28.272Z,58.20
2019-03-13T06:00:18.375Z,59.95
2019-03-13T06:03:06.585Z,62.20
2019-03-13T06:05:55.114Z,64.01
2019-03-13T06:08:43.821Z,65.43
2019-03-13T06:11:32.218Z,66.41
2019-03-13T06:14:20.821Z,66.69
2019-03-13T06:17:09.230Z,68.06
2019-03-13T06:19:58.132Z,68.94
2019-03-13T06:22:47.338Z,69.64
2019-03-13T06:25:36.088Z,70.42
2019-03-13T06:28:24.970Z,70.66
2019-03-13T06:31:13.677Z,70.83
2019-03-13T06:34:02.338Z,71.33
2019-03-13T06:36:51.298Z,71.23
2019-03-13T06:39:40.463Z,71.68
2019-03-13T06:42:29.007Z,71.63
2019-03-13T06:45:17.950Z,71.85
2019-03-13T06:48:06.354Z,71.20
2019-03-13T06:50:55.042Z,70.78
2019-03-13T06:53:43.116Z,71.06
2019-03-13T06:56:31.151Z,70.70
2019-03-13T06:59:27.485Z,70.71
2019-03-13T07:02:23.958Z,70.70
2019-03-13T07:05:27.143Z,70.80
2019-03-13T07:08:25.348Z,70.18
2019-03-13T07:11:45.746Z,69.67
2019-03-13T07:15:05.190Z,69.78
2019-03-13T07:18:21.253Z,69.72
2019-03-13T07:21:28.349Z,68.89
2019-03-13T07:24:34.837Z,67.95
2019-03-13T07:27:35.517Z,67.34
2019-03-13T07:30:48.746Z,67.44
2019-03-13T07:34:00.110Z,66.61
2019-03-13T07:37:08.111Z,66.17
2019-03-13T07:40:06.671Z,66.24
2019-03-13T07:43:11.884Z,66.08
2019-03-13T07:46:19.332Z,64.88
2019-03-13T07:49:27.079Z,63.97
2019-03-13T07:52:33.769Z,63.95
2019-03-13T07:55:40.171Z,63.72
2019-03-13T07:58:44.278Z,63.92
2019-03-13T08:02:01.360Z,62.09
2019-03-13T08:05:07.808Z,61.05
2019-03-13T08:08:28.167Z,59.87
2019-03-13T08:11:27.346Z,60.04
2019-03-13T08:14:37.228Z,57.26
2019-03-13T08:17:38.485Z,57.59
2019-03-13T08:20:59.058Z,56.65
2019-03-13T08:24:02.881Z,56.49
2019-03-13T08:27:25.865Z,56.17
2019-03-13T08:30:45.183Z,56.12
2019-03-13T08:33:51.579Z,54.65
2019-03-13T08:36:55.070Z,54.42
2019-03-13T08:40:01.965Z,53.89
2019-03-13T08:43:08.246Z,53.90
2019-03-13T08:46:14.581Z,54.39
2019-03-13T08:49:24.636Z,52.78
2019-03-13T08:52:34.986Z,53.14
2019-03-13T08:55:42.413Z,53.38
2019-03-13T08:58:55.652Z,53.03
2019-03-13T09:01:56.551Z,51.31
2019-03-13T09:04:55.567Z,51.53
2019-03-13T09:08:18.775Z,51.15
2019-03-13T09:11:28.696Z,48.49
2019-03-13T09:14:37.257Z,48.79
2019-03-13T09:17:42.947Z,48.38
2019-03-13T09:20:38.519Z,47.31
2019-03-13T09:23:58.622Z,47.06
2019-03-13T09:27:18.203Z,47.38
2019-03-13T09:30:41.474Z,46.29
2019-03-13T09:33:47.338Z,46.83
2019-03-13T09:36:48.886Z,45.91
2019-03-13T09:39:59.755Z,46.39
2019-03-13T09:43:05.652Z,45.70
2019-03-13T09:46:12.830Z,45.08
2019-03-13T09:49:30.297Z,43.99
2019-03-13T09:52:41.242Z,43.23
2019-03-13T09:55:48.540Z,42.61
2019-03-13T09:59:12.170Z,42.45
2019-03-13T10:02:18.885Z,42.79
2019-03-13T10:05:23.649Z,42.38
2019-03-13T10:08:31.488Z,42.48
2019-03-13T10:11:28.696Z,42.57
2019-03-13T10:14:39.525Z,43.52
2019-03-13T10:17:45.263Z,43.98
2019-03-13T10:20:51.849Z,44.92
2019-03-13T10:23:48.448Z,45.19
2019-03-13T10:26:55.893Z,44.62
2019-03-13T10:30:07.684Z,46.17
2019-03-13T10:33:02.739Z,48.25
2019-03-13T10:36:29.270Z,48.91
2019-03-13T10:39:46.582Z,48.68
2019-03-13T10:42:41.736Z,48.02
2019-03-13T10:45:38.455Z,47.68
2019-03-13T10:48:55.657Z,46.72
2019-03-13T10:52:06.301Z,45.63
2019-03-13T10:55:20.605Z,46.10
2019-03-13T10:58:27.258Z,45.21
2019-03-13T11:01:20.944Z,44.55
2019-03-13T11:04:28.147Z,45.12
2019-03-13T11:07:35.518Z,43.75
2019-03-13T11:10:43.027Z,42.59
2019-03-13T11:13:39.568Z,43.45
2019-03-13T11:16:46.874Z,43.80
2019-03-13T11:19:41.407Z,42.65
2019-03-13T11:22:51.711Z,43.47
2019-03-13T11:26:05.267Z,45.59
2019-03-13T11:29:13.027Z,57.53
2019-03-13T11:32:20.766Z,63.73
2019-03-13T11:35:28.852Z,66.67
2019-03-13T11:38:35.561Z,68.46
2019-03-13T11:41:51.846Z,66.68
2019-03-13T11:45:14.737Z,66.05
2019-03-13T11:48:15.804Z,65.32
2019-03-13T11:51:29.818Z,60.35
2019-03-13T11:54:47.381Z,58.38
2019-03-13T11:57:54.163Z,57.87
2019-03-13T12:01:00.107Z,57.09
2019-03-13T12:04:03.734Z,56.43
2019-03-13T12:06:59.753Z,53.91
2019-03-13T12:09:58.767Z,52.70
2019-03-13T12:13:01.780Z,52.73
2019-03-13T12:16:03.845Z,52.03
2019-03-13T12:19:17.633Z,51.28
2019-03-13T12:22:26.929Z,51.01
2019-03-13T12:25:30.387Z,49.37
2019-03-13T12:28:29.632Z,47.89
2019-03-13T12:31:56.559Z,48.22
2019-03-13T12:35:04.150Z,47.04
2019-03-13T12:37:59.957Z,47.08
2019-03-13T12:41:07.119Z,48.45
2019-03-13T12:44:15.125Z,48.17
2019-03-13T12:47:25.503Z,47.78
2019-03-13T12:50:39.339Z,45.59
2019-03-13T12:53:37.460Z,46.93
2019-03-13T12:56:44.549Z,47.72
2019-03-13T12:59:50.999Z,48.31
2019-03-13T13:02:55.332Z,47.73
2019-03-13T13:06:02.122Z,47.71
2019-03-13T13:09:21.403Z,46.94
2019-03-13T13:12:29.182Z,45.50
2019-03-13T13:15:34.969Z,45.96
2019-03-13T13:18:48.839Z,44.86
2019-03-13T13:21:37.573Z,44.72
2019-03-13T13:24:26.260Z,45.60
2019-03-13T13:27:14.504Z,46.21
2019-03-13T13:30:02.821Z,45.70
2019-03-13T13:32:51.161Z,46.07
2019-03-13T13:35:39.885Z,45.59
2019-03-13T13:38:28.275Z,43.79
2019-03-13T13:41:17.695Z,41.00
2019-03-13T13:44:06.865Z,40.32
2019-03-13T13:46:55.799Z,41.58
2019-03-13T13:49:44.519Z,43.08
2019-03-13T13:52:32.875Z,43.23
2019-03-13T13:55:22.023Z,43.04
2019-03-13T13:58:10.734Z,43.58
2019-03-13T14:01:00.761Z,45.31
2019-03-13T14:04:19.835Z,46.86
2019-03-13T14:14:56.891Z,41.12
2019-03-13T14:17:45.635Z,38.52
2019-03-13T14:20:34.814Z,36.88
2019-03-13T14:23:23.399Z,36.21
2019-03-13T14:26:11.552Z,36.31
2019-03-13T14:29:00.558Z,37.85
2019-03-13T14:31:49.065Z,37.96
2019-03-13T14:34:37.925Z,38.16
2019-03-13T14:37:26.646Z,39.56
2019-03-13T14:40:15.443Z,41.09
2019-03-13T14:43:03.914Z,42.76
2019-03-13T14:45:52.217Z,46.24
2019-03-13T14:48:40.778Z,48.87
2019-03-13T14:51:28.919Z,49.73
2019-03-13T14:54:17.319Z,52.29
2019-03-13T14:57:05.832Z,51.96
2019-03-13T14:59:54.516Z,53.21
2019-03-13T15:02:43.594Z,54.86
2019-03-13T15:05:32.829Z,54.81
2019-03-13T15:08:21.598Z,55.05
2019-03-13T15:11:11.730Z,54.86
2019-03-13T15:14:00.308Z,55.61
2019-03-13T15:16:49.113Z,55.76
2019-03-13T15:19:37.284Z,55.28
2019-03-13T15:22:25.723Z,55.22
2019-03-13T15:25:16.438Z,55.44
2019-03-13T15:28:05.421Z,54.84
2019-03-13T15:30:54.562Z,54.05
2019-03-13T15:33:43.384Z,52.51
2019-03-13T15:36:31.945Z,49.72
2019-03-13T15:39:21.048Z,46.41
2019-03-13T15:42:09.198Z,45.72
2019-03-13T15:44:58.660Z,45.09
2019-03-13T15:47:47.532Z,44.75
2019-03-13T15:50:36.603Z,45.09
2019-03-13T15:53:25.628Z,46.17
2019-03-13T15:56:14.581Z,46.79
2019-03-13T15:59:03.303Z,47.71
2019-03-13T16:01:52.309Z,47.88
2019-03-13T16:04:41.630Z,47.82
2019-03-13T16:07:30.008Z,47.80
2019-03-13T16:10:19.074Z,47.47
2019-03-13T16:13:08.035Z,47.88
2019-03-13T16:15:56.912Z,47.56
2019-03-13T16:18:45.255Z,47.63
2019-03-13T16:21:34.192Z,48.12
2019-03-13T16:24:22.989Z,47.91
2019-03-13T16:27:12.232Z,48.02
2019-03-13T16:30:01.105Z,47.53
2019-03-13T16:32:50.363Z,47.24
2019-03-13T16:35:39.160Z,47.74
2019-03-13T16:38:28.129Z,47.77
2019-03-13T16:41:17.373Z,47.86
2019-03-13T16:44:06.027Z,47.73
2019-03-13T16:46:54.916Z,48.54
2019-03-13T16:49:43.472Z,50.91
2019-03-13T16:52:31.775Z,52.59
2019-03-13T16:55:20.797Z,53.92
2019-03-13T16:58:09.859Z,54.76
2019-03-13T17:00:58.492Z,54.31
2019-03-13T17:03:47.701Z,54.58
2019-03-13T17:06:36.624Z,55.09
2019-03-13T17:09:25.596Z,55.38
2019-03-13T17:12:14.681Z,55.46
2019-03-13T17:15:02.915Z,55.42
2019-03-13T17:17:51.721Z,55.57
2019-03-13T17:20:40.519Z,55.68
2019-03-13T17:23:29.330Z,55.64
2019-03-13T17:26:18.330Z,55.86
2019-03-13T17:29:07.711Z,55.53
2019-03-13T17:31:56.132Z,55.58
2019-03-13T17:34:44.966Z,55.83
2019-03-13T17:37:33.991Z,55.70
2019-03-13T17:40:23.689Z,56.17
2019-03-13T17:43:13.012Z,56.07
2019-03-13T17:46:01.659Z,56.26
2019-03-13T17:48:50.334Z,56.47
2019-03-13T17:51:39.236Z,56.66
2019-03-13T17:54:27.752Z,56.72
2019-03-13T17:57:16.610Z,57.07
2019-03-13T18:00:07.113Z,57.18
2019-03-13T18:02:55.721Z,56.98
2019-03-13T18:05:44.171Z,57.04
2019-03-13T18:08:32.982Z,57.38
2019-03-13T18:11:22.738Z,57.51
2019-03-13T18:14:12.062Z,57.59
2019-03-13T18:17:01.232Z,57.79
2019-03-13T18:19:50.361Z,57.96
2019-03-13T18:22:38.823Z,58.07
2019-03-13T18:25:27.769Z,58.25
2019-03-13T18:28:16.824Z,58.51
2019-03-13T18:31:05.793Z,58.47
2019-03-13T18:33:56.822Z,58.34
2019-03-13T18:36:54.431Z,58.34
2019-03-13T18:39:44.454Z,58.17
2019-03-13T18:42:34.176Z,58.14
2019-03-13T18:45:24.641Z,57.94
2019-03-13T18:48:13.832Z,57.96
2019-03-13T18:51:03.039Z,57.76
2019-03-13T18:53:51.291Z,57.71
2019-03-13T18:56:40.355Z,57.46
2019-03-13T18:59:30.585Z,57.31
2019-03-13T19:02:19.191Z,57.38
2019-03-13T19:05:08.909Z,57.01
2019-03-13T19:07:57.639Z,57.27
2019-03-13T19:10:46.073Z,57.30
2019-03-13T19:13:35.222Z,57.33
2019-03-13T19:16:23.602Z,57.12
2019-03-13T19:19:11.827Z,57.18
2019-03-13T19:22:01.018Z,57.25
2019-03-13T19:24:49.147Z,57.30
2019-03-13T19:27:38.447Z,57.38
2019-03-13T19:30:30.316Z,57.57
2019-03-13T19:33:19.225Z,57.34
2019-03-13T19:36:08.131Z,57.14
2019-03-13T19:38:56.389Z,57.23
2019-03-13T19:41:45.647Z,57.00
2019-03-13T19:44:35.121Z,57.03
2019-03-13T19:47:24.366Z,57.12
2019-03-13T19:50:13.790Z,57.21
2019-03-13T19:53:02.663Z,57.33
2019-03-13T19:55:50.895Z,57.29
2019-03-13T19:58:40.283Z,57.55
2019-03-13T20:01:29.743Z,57.15
2019-03-13T20:04:17.961Z,57.37
2019-03-13T20:07:06.849Z,57.32
2019-03-13T20:09:56.668Z,57.23
2019-03-13T20:12:45.202Z,57.08
2019-03-13T20:15:33.821Z,56.78
2019-03-13T20:18:22.807Z,56.79
2019-03-13T20:21:11.106Z,56.71
2019-03-13T20:24:00.316Z,56.57
2019-03-13T20:26:48.901Z,56.29
2019-03-13T20:29:37.994Z,55.94
2019-03-13T20:32:26.263Z,55.87
2019-03-13T20:35:14.915Z,55.20
2019-03-13T20:38:05.355Z,55.36
2019-03-13T20:40:54.597Z,55.23
2019-03-13T20:43:46.115Z,55.23
2019-03-13T20:46:35.164Z,54.93
2019-03-13T20:49:24.207Z,55.11
2019-03-13T20:52:13.318Z,54.94
2019-03-13T20:55:02.335Z,55.00
2019-03-13T20:57:51.315Z,55.21
2019-03-13T21:00:40.851Z,56.37
2019-03-13T21:03:29.694Z,57.27
2019-03-13T21:06:19.083Z,58.32
2019-03-13T21:09:08.513Z,57.98
2019-03-13T21:11:56.987Z,57.91
2019-03-13T21:14:45.734Z,57.69
2019-03-13T21:17:34.381Z,57.61
2019-03-13T21:20:23.559Z,58.52
2019-03-13T21:23:11.982Z,60.27
2019-03-13T21:26:01.051Z,62.35
2019-03-13T21:28:49.317Z,62.73
2019-03-13T21:31:38.028Z,64.11
2019-03-13T21:34:28.482Z,63.82
2019-03-13T21:37:16.673Z,64.13
2019-03-13T21:40:06.265Z,63.98
2019-03-13T21:42:55.491Z,64.09
2019-03-13T21:45:46.810Z,64.14
2019-03-13T21:48:35.605Z,64.21
2019-03-13T21:51:24.439Z,64.34
2019-03-13T21:54:13.829Z,64.14
2019-03-13T21:57:02.655Z,64.14
2019-03-13T21:59:51.543Z,64.00
2019-03-13T22:02:39.960Z,63.88
2019-03-13T22:05:28.242Z,64.11
2019-03-13T22:08:16.830Z,64.22
2019-03-13T22:11:05.525Z,64.30
2019-03-13T22:13:54.687Z,64.42
2019-03-13T22:16:42.982Z,64.87
2019-03-13T22:19:31.499Z,65.25
2019-03-13T22:22:19.789Z,65.88
2019-03-13T22:25:09.861Z,65.88
2019-03-13T22:27:58.706Z,66.18
2019-03-13T22:30:47.772Z,66.43
2019-03-13T22:33:36.561Z,66.20
2019-03-13T22:36:25.837Z,65.89
2019-03-13T22:39:14.214Z,65.91
2019-03-13T22:42:04.859Z,65.65
2019-03-13T22:44:53.542Z,65.76
2019-03-13T22:47:43.270Z,65.70
2019-03-13T22:50:32.485Z,65.85
2019-03-13T22:53:21.495Z,65.91
2019-03-13T22:56:10.361Z,66.26
2019-03-13T22:58:59.092Z,66.32
2019-03-13T23:01:47.604Z,66.36
2019-03-13T23:04:36.404Z,66.12
2019-03-13T23:07:25.498Z,65.94
2019-03-13T23:10:31.120Z,65.73
2019-03-13T23:13:19.909Z,65.61
2019-03-13T23:16:08.773Z,65.59
2019-03-13T23:18:57.379Z,65.56
2019-03-13T23:21:46.089Z,65.48
2019-03-13T23:24:37.944Z,65.27
2019-03-13T23:27:25.640Z,65.28
2019-03-13T23:30:14.083Z,64.96
2019-03-13T23:33:02.869Z,64.85
2019-03-13T23:35:51.666Z,65.04
2019-03-13T23:38:39.989Z,65.04
2019-03-13T23:41:28.756Z,64.80
2019-03-13T23:44:17.319Z,65.07
2019-03-13T23:47:05.971Z,65.39
2019-03-13T23:49:54.560Z,65.38
2019-03-13T23:52:43.817Z,65.36
2019-03-13T23:55:32.213Z,65.29
2019-03-13T23:58:21.011Z,65.16
